Max Planck — ELZY8 — position and weather

sailwx.info

Track history (hours):
 
Tides and Currents Weather Stations Pressure Air Temp Water Temp Dewpoint Dewpoint Depression Visibility Wind Speed Wind Dir Waves Ship Positions

Max Planck

Last reported at 2016-Jul-08 20:13 UTC. Time now 2016-Jul-24 06:48 UTC.
Position N 31°11' E 121°50'.
Warning: this ship's position is 15 days out of date.

Length 99.9 m; beam 16.2 m; draft 6.8 m.

Type: Ship (hazmat cat A). MMSI: 636017362.

Date/timePositionNaut miles runAvg speedWind from/ knotsBaromVisibWave heightAir tempDewpointWater temp
2016-Jul-08 20:13N 31°11' E 121°50'811.3
2016-Jul-08 19:32N 31°17' E 121°44'1010.5
2016-Jul-08 18:33N 31°23' E 121°34'8 8.5
2016-Jul-08 17:34N 31°29' E 121°26'1212.4
2016-Jul-08 16:33N 31°37' E 121°16'1514.5
2016-Jul-08 15:32N 31°46' E 121°02'1312.5
2016-Jul-08 14:28N 31°56' E 120°52'1111.5
2016-Jul-08 13:33N 31°60' E 120°40'1413.9
2016-Jul-08 12:32N 32°01' E 120°23'1313.2
2016-Jul-08 11:32N 31°56' E 120°09'1312.6
2016-Jul-08 10:32N 32°03' E 119°56'  
2016-Jul-05 10:25N 31°52' E 120°54'7 7.7
2016-Jul-05 09:27N 31°47' E 120°60'8 8.9
2016-Jul-05 08:32N 31°43' E 121°08'1010.3
2016-Jul-05 07:34N 31°36' E 121°17'1111.0
2016-Jul-05 06:33N 31°29' E 121°27'17 8.2
2016-Jul-05 04:30N 31°19' E 121°42'  
2016-Jun-30 04:33N 34°55' E 139°27'1210.6
2016-Jun-30 03:23N 35°03' E 139°39'810.1
2016-Jun-30 02:33N 35°10' E 139°45'1111.0
2016-Jun-30 01:33N 35°21' E 139°42'9 8.6
2016-Jun-30 00:33N 35°29' E 139°46'0 0.0
2016-Jun-29 23:31N 35°29' E 139°46'0 0.1
2016-Jun-29 22:31N 35°29' E 139°46'3 2.4
2016-Jun-29 21:27N 35°31' E 139°46'0 0.0
2016-Jun-29 00:31N 35°31' E 139°46'4 4.2
2016-Jun-28 23:33N 35°29' E 139°42'2 1.8
2016-Jun-28 22:33N 35°28' E 139°44'0 0.0
2016-Jun-28 21:33N 35°28' E 139°44'0 0.0
2016-Jun-28 20:33N 35°28' E 139°44'  
Track history (hours):
 
Tides and Currents Weather Stations Pressure Air Temp Water Temp Dewpoint Dewpoint Depression Visibility Wind Speed Wind Dir Waves Ship Positions

Max Planck

Last reported at 2016-Jul-08 20:13 UTC. Time now 2016-Jul-24 06:48 UTC.
Position N 31°11' E 121°50'.
Warning: this ship's position is 15 days out of date.

Length 99.9 m; beam 16.2 m; draft 6.8 m.

Type: Ship (hazmat cat A). MMSI: 636017362.

Date/timePositionNaut miles runAvg speedWind from/ knotsBaromVisibWave heightAir tempDewpointWater temp
2016-Jul-08 20:13N 31°11' E 121°50'811.3
2016-Jul-08 19:32N 31°17' E 121°44'1010.5
2016-Jul-08 18:33N 31°23' E 121°34'8 8.5
2016-Jul-08 17:34N 31°29' E 121°26'1212.4
2016-Jul-08 16:33N 31°37' E 121°16'1514.5
2016-Jul-08 15:32N 31°46' E 121°02'1312.5
2016-Jul-08 14:28N 31°56' E 120°52'1111.5
2016-Jul-08 13:33N 31°60' E 120°40'1413.9
2016-Jul-08 12:32N 32°01' E 120°23'1313.2
2016-Jul-08 11:32N 31°56' E 120°09'1312.6
2016-Jul-08 10:32N 32°03' E 119°56'  
2016-Jul-05 10:25N 31°52' E 120°54'7 7.7
2016-Jul-05 09:27N 31°47' E 120°60'8 8.9
2016-Jul-05 08:32N 31°43' E 121°08'1010.3
2016-Jul-05 07:34N 31°36' E 121°17'1111.0
2016-Jul-05 06:33N 31°29' E 121°27'17 8.2
2016-Jul-05 04:30N 31°19' E 121°42'  
2016-Jun-30 04:33N 34°55' E 139°27'1210.6
2016-Jun-30 03:23N 35°03' E 139°39'810.1
2016-Jun-30 02:33N 35°10' E 139°45'1111.0
2016-Jun-30 01:33N 35°21' E 139°42'9 8.6
2016-Jun-30 00:33N 35°29' E 139°46'0 0.0
2016-Jun-29 23:31N 35°29' E 139°46'0 0.1
2016-Jun-29 22:31N 35°29' E 139°46'3 2.4
2016-Jun-29 21:27N 35°31' E 139°46'0 0.0
2016-Jun-29 00:31N 35°31' E 139°46'4 4.2
2016-Jun-28 23:33N 35°29' E 139°42'2 1.8
2016-Jun-28 22:33N 35°28' E 139°44'0 0.0
2016-Jun-28 21:33N 35°28' E 139°44'0 0.0
2016-Jun-28 20:33N 35°28' E 139°44'  

Dump ship's entire track history